Latest Weather Observations for Bairnsdale

IDV60801

Issued at 11:52 am EST Saturday 1 October 2022 (issued every 10 minutes, with the page automatically refreshed every 10 minutes)

About weather observations | Map of weather stations | Latest weather observations for VIC | Other Formats
Station Details ID: 085279 Name: BAIRNSDALE AIRPORT Lat: -37.88 Lon: 147.57 Height: 49.4 m
Data from the previous 72 hours. | See also: Recent months at Bairnsdale
Date/Time
EST
Temp
°C
App
Temp
°C
Dew
Point
°C
Rel
Hum
%
Delta-T
°C
Wind Press
QNH
hPa
Press
MSL
hPa
Rain since
9am
mm
Dir  Spd
km/h
Gust
km/h
Spd
kts
Gust
kts
01/11:30am 15.6 11.5 6.1 53 4.6 E 17 28 9 15 1025.6 1025.6 0.0
01/11:00am 15.5 11.5 6.8 56 4.2 E 17 26 9 14 1026.1 1026.1 0.0
01/10:30am 15.2 11.6 8.2 63 3.5 ENE 17 24 9 13 1026.3 1026.3 0.0
01/10:00am 14.9 10.4 6.2 56 4.2 E 19 28 10 15 1026.7 1026.7 0.0
01/09:30am 13.9 10.4 7.2 64 3.3 E 15 20 8 11 1027.1 1027.2 0.0
01/09:00am 13.5 10.5 7.9 69 2.8 ENE 13 17 7 9 1027.3 1027.4 0.2
01/08:30am 12.8 11.2 8.7 76 2.1 ENE 7 11 4 6 1027.4 1027.5 0.2
01/08:00am 11.3 10.8 9.2 87 1.0 NNW 2 7 1 4 1027.4 1027.5 0.2
01/07:30am 9.5 8.2 9.2 98 0.1 NW 6 7 3 4 1027.5 1027.6 0.2
01/07:00am 8.0 6.4 7.9 99 0.0 NW 6 7 3 4 1027.5 1027.6 0.2
01/06:30am 5.9 4.5 5.6 98 0.1 WNW 2 6 1 3 1027.5 1027.6 0.2
01/06:26am 5.9 3.8 5.6 98 0.1 WNW 6 6 3 3 1027.5 1027.6 0.2
01/06:00am 5.1 2.2 4.8 98 0.1 NW 9 11 5 6 1027.2 1027.3 0.2
01/05:30am 5.4 2.6 5.1 98 0.1 NNW 9 11 5 6 1026.9 1027.0 0.2
01/05:00am 5.6 3.2 5.3 98 0.1 NW 7 7 4 4 1026.8 1026.9 0.2
01/04:30am 6.1 3.8 5.8 98 0.1 NW 7 9 4 5 1027.0 1027.1 0.2
01/04:12am 6.2 3.9 5.9 98 0.1 NW 7 9 4 5 1027.1 1027.2 0.2
01/04:00am 6.1 5.1 5.7 97 0.2 CALM 0 0 0 0 1027.2 1027.3 0.2
01/03:30am 6.0 5.0 5.6 97 0.2 CALM 0 0 0 0 1027.3 1027.4 0.2
01/03:00am 6.7 5.1 6.3 97 0.2 SSE 4 7 2 4 1027.6 1027.7 0.2
01/02:30am 7.3 5.5 7.0 98 0.1 SSW 6 6 3 3 1027.7 1027.8 0.2
01/02:00am 7.1 5.0 6.8 98 0.1 SSW 7 9 4 5 1027.9 1028.0 0.2
01/01:30am 6.3 5.4 5.9 97 0.2 CALM 0 0 0 0 1028.1 1028.2 0.2
01/01:03am 6.0 5.0 5.4 96 0.3 CALM 0 0 0 0 1028.3 1028.4 0.2
01/01:00am 6.0 5.0 5.4 96 0.3 CALM 0 0 0 0 1028.4 1028.5 0.2
01/12:37am 6.4 5.4 5.7 95 0.3 CALM 0 0 0 0 1028.6 1028.7 0.2
01/12:30am 6.6 5.6 5.7 94 0.4 CALM 0 0 0 0 1028.7 1028.8 0.2
01/12:00am 7.5 6.7 6.3 92 0.5 CALM 0 0 0 0 1028.8 1028.9 0.2
 
Date/Time
EST
Temp
°C
App
Temp
°C
Dew
Point
°C
Rel
Hum
%
Delta-T
°C
Wind Press
QNH
hPa
Press
MSL
hPa
Rain since
9am
mm
Dir  Spd
km/h
Gust
km/h
Spd
kts
Gust
kts
30/11:30pm 9.0 7.3 7.6 91 0.7 NNE 6 7 3 4 1028.9 1029.0 0.2
30/11:00pm 9.5 7.7 7.9 90 0.8 NE 7 11 4 6 1029.1 1029.2 0.2
30/10:30pm 10.4 8.0 8.5 88 0.9 ENE 11 17 6 9 1029.5 1029.5 0.2
30/10:00pm 10.8 8.1 8.9 88 0.9 ENE 13 17 7 9 1029.8 1029.8 0.2
30/09:30pm 10.9 8.7 9.2 89 0.8 ENE 11 15 6 8 1029.8 1029.8 0.2
30/09:00pm 11.6 8.2 9.3 86 1.1 E 17 20 9 11 1030.0 1030.0 0.2
30/08:30pm 11.4 6.8 9.5 88 1.0 E 24 32 13 17 1030.0 1030.0 0.2
30/08:00pm 11.9 7.3 9.5 85 1.2 E 24 32 13 17 1029.8 1029.8 0.2
30/07:43pm 11.8 7.6 9.7 87 1.1 E 22 30 12 16 1029.6 1029.6 0.2
30/07:30pm 12.0 7.4 9.7 86 1.2 E 24 33 13 18 1029.3 1029.4 0.2
30/07:01pm 11.7 9.0 10.3 91 0.7 E 15 20 8 11 1029.2 1029.3 0.2
30/07:00pm 11.7 9.0 10.3 91 0.7 E 15 20 8 11 1029.2 1029.3 0.2
30/06:30pm 11.5 8.6 9.6 88 1.0 ESE 15 20 8 11 1029.3 1029.4 0.2
30/06:00pm 12.1 9.1 9.1 82 1.5 ESE 15 19 8 10 1029.3 1029.4 0.2
30/05:30pm 12.9 9.1 9.2 78 1.9 ESE 19 24 10 13 1029.1 1029.2 0.2
30/05:00pm 13.6 9.3 9.5 76 2.1 ESE 22 30 12 16 1029.1 1029.2 0.2
30/04:30pm 14.2 10.3 9.6 74 2.4 ESE 20 30 11 16 1029.1 1029.2 0.2
30/04:00pm 14.9 10.6 9.3 69 2.9 ESE 22 30 12 16 1029.2 1029.3 0.2
30/03:30pm 15.0 10.0 9.4 69 2.9 ESE 26 33 14 18 1029.3 1029.4 0.2
30/03:00pm 15.1 10.0 9.2 68 3.0 ESE 26 35 14 19 1029.5 1029.5 0.2
30/02:30pm 15.1 9.8 9.9 71 2.7 ESE 28 39 15 21 1029.5 1029.5 0.2
30/02:00pm 15.8 10.1 9.9 68 3.1 ESE 30 37 16 20 1029.6 1029.6 0.2
30/01:30pm 15.0 9.6 9.6 70 2.8 ESE 28 35 15 19 1029.7 1029.7 0.2
30/01:00pm 15.5 10.6 10.1 70 2.8 ESE 26 35 14 19 1030.0 1030.0 0.2
30/12:30pm 16.3 12.0 12.1 76 2.3 SE 26 35 14 19 1030.2 1030.2 0.2
30/12:00pm 15.6 10.2 9.5 67 3.1 ESE 28 33 15 18 1030.4 1030.4 0.0
30/11:30am 15.4 9.9 10.4 72 2.6 SE 30 37 16 20 1030.7 1030.7 0.0
30/11:00am 15.6 10.5 10.6 72 2.6 ESE 28 41 15 22 1030.8 1030.8 0.0
30/10:30am 15.2 10.4 10.2 72 2.6 ESE 26 35 14 19 1030.9 1030.9 0.0
30/10:00am 14.4 9.5 11.4 82 1.6 ESE 28 39 15 21 1031.0 1031.0 0.0
30/09:30am 13.6 9.0 11.0 84 1.4 ESE 26 33 14 18 1031.0 1031.0 0.0
30/09:00am 13.2 9.8 11.3 88 1.0 ESE 20 32 11 17 1030.9 1030.9 6.8
30/08:43am 12.5 9.4 11.6 94 0.5 ESE 19 26 10 14 1030.9 1030.9 6.8
30/08:30am 12.1 8.9 11.2 94 0.5 ESE 19 32 10 17 1030.8 1030.8 6.8
30/08:18am 11.8 8.4 10.5 92 0.7 ESE 19 28 10 15 1030.9 1030.9 5.6
30/08:07am 12.2 9.6 10.8 91 0.7 E 15 17 8 9 1030.6 1030.6 4.8
30/08:00am 12.1 8.8 10.8 92 0.7 E 19 28 10 15 1030.5 1030.5 4.8
30/07:48am 11.6 8.0 10.0 90 0.8 E 19 26 10 14 1030.4 1030.4 4.2
30/07:30am 12.4 9.1 9.6 83 1.4 E 17 24 9 13 1030.3 1030.3 3.6
30/07:00am 12.0 9.0 10.6 91 0.7 E 17 24 9 13 1030.1 1030.1 3.6
30/06:30am 11.6 8.5 10.3 92 0.7 ESE 17 24 9 13 1029.8 1029.8 3.6
30/06:00am 11.4 7.7 10.1 92 0.7 ESE 20 32 11 17 1029.5 1029.5 3.6
30/05:30am 11.3 8.3 10.7 96 0.3 E 17 28 9 15 1029.0 1029.1 3.6
30/05:29am 11.4 8.4 10.8 96 0.3 E 17 28 9 15 1029.0 1029.1 3.6
30/05:06am 10.9 8.6 10.3 96 0.3 NE 13 20 7 11 1028.9 1029.0 3.4
30/05:00am 10.9 8.5 10.1 95 0.4 E 13 20 7 11 1028.8 1028.9 3.0
30/04:58am 11.1 8.8 10.3 95 0.4 ESE 13 20 7 11 1028.8 1028.9 2.8
30/04:51am 11.5 9.0 10.9 96 0.3 SE 15 19 8 10 1028.5 1028.6 2.0
30/04:30am 11.0 9.2 10.7 98 0.2 SSE 11 17 6 9 1028.4 1028.5 1.8
30/04:12am 10.7 9.5 10.4 98 0.2 S 7 9 4 5 1028.3 1028.4 1.8
30/04:00am 10.7 9.7 10.4 98 0.2 S 6 7 3 4 1028.2 1028.3 1.6
30/03:45am 10.6 9.4 10.3 98 0.2 SSW 7 9 4 5 1028.1 1028.2 1.4
30/03:30am 10.6 9.0 10.3 98 0.2 S 9 11 5 6 1028.1 1028.2 1.4
30/03:28am 10.6 9.0 10.3 98 0.2 S 9 11 5 6 1028.1 1028.2 1.4
30/03:00am 10.2 9.1 9.9 98 0.2 S 6 7 3 4 1028.2 1028.3 1.0
30/02:30am 10.1 8.8 9.8 98 0.2 SSW 7 11 4 6 1028.1 1028.2 0.8
30/02:00am 9.8 8.0 9.5 98 0.1 NW 9 11 5 6 1028.2 1028.3 0.8
30/01:30am 10.2 8.5 9.9 98 0.2 W 9 13 5 7 1028.2 1028.3 0.8
30/01:20am 10.4 9.1 10.1 98 0.2 WSW 7 9 4 5 1028.4 1028.5 0.8
30/01:07am 10.5 10.2 10.2 98 0.2 SSW 2 9 1 5 1028.5 1028.6 0.8
30/01:04am 10.5 10.6 10.2 98 0.2 CALM 0 0 0 0 1028.5 1028.6 0.6
30/01:00am 10.5 10.2 10.2 98 0.2 SSW 2 7 1 4 1028.5 1028.6 0.6
30/12:31am 9.9 8.7 9.4 97 0.2 NW 6 7 3 4 1028.6 1028.7 0.6
30/12:30am 9.9 8.7 9.4 97 0.2 NW 6 7 3 4 1028.6 1028.7 0.6
30/12:16am 9.6 8.3 9.1 97 0.2 NW 6 9 3 5 1028.5 1028.6 0.6
30/12:00am 9.6 8.2 9.0 96 0.3 WNW 6 9 3 5 1028.6 1028.7 0.6
 
Date/Time
EST
Temp
°C
App
Temp
°C
Dew
Point
°C
Rel
Hum
%
Delta-T
°C
Wind Press
QNH
hPa
Press
MSL
hPa
Rain since
9am
mm
Dir  Spd
km/h
Gust
km/h
Spd
kts
Gust
kts
29/11:51pm 10.0 8.8 9.5 97 0.2 WNW 6 7 3 4 1028.6 1028.7 0.6
29/11:30pm 10.2 9.0 9.6 96 0.3 W 6 7 3 4 1028.6 1028.7 0.6
29/11:00pm 10.5 9.4 9.9 96 0.3 WNW 6 6 3 3 1028.9 1029.0 0.4
29/10:30pm 10.5 9.4 9.9 96 0.3 WNW 6 7 3 4 1028.9 1029.0 0.4
29/10:00pm 10.6 9.8 9.7 94 0.5 SSW 4 9 2 5 1028.7 1028.8 0.4
29/09:30pm 11.1 10.1 10.2 94 0.5 ENE 6 9 3 5 1028.6 1028.7 0.4
29/09:00pm 11.3 9.5 10.7 96 0.3 ENE 11 15 6 8 1028.6 1028.7 0.4
29/08:51pm 11.3 9.1 10.7 96 0.3 ENE 13 17 7 9 1028.6 1028.7 0.4
29/08:45pm 11.3 8.7 10.7 96 0.3 ENE 15 20 8 11 1028.6 1028.7 0.4
29/08:30pm 11.5 9.0 10.9 96 0.3 ENE 15 19 8 10 1028.5 1028.6 0.4
29/08:29pm 11.5 9.0 10.9 96 0.3 ENE 15 17 8 9 1028.5 1028.6 0.4
29/08:26pm 11.5 9.3 10.9 96 0.3 ENE 13 17 7 9 1028.5 1028.6 0.4
29/08:22pm 11.5 9.3 10.7 95 0.4 ENE 13 17 7 9 1028.4 1028.5 0.4
29/08:09pm 12.2 10.9 11.1 93 0.6 SE 9 20 5 11 1028.2 1028.3 0.2
29/08:00pm 12.3 11.3 10.9 91 0.7 SSE 7 9 4 5 1028.2 1028.3 0.0
29/07:30pm 11.9 10.8 10.5 91 0.7 SSE 7 9 4 5 1028.0 1028.1 0.0
29/07:00pm 11.8 10.2 10.2 90 0.8 SSE 9 9 5 5 1027.7 1027.8 0.0
29/06:30pm 12.3 10.4 10.5 89 0.9 SSE 11 15 6 8 1027.4 1027.5 0.0
29/06:00pm 12.8 10.1 10.2 84 1.3 SSE 15 19 8 10 1027.3 1027.4 0.0
29/05:30pm 13.4 10.3 10.2 81 1.7 SSE 17 20 9 11 1027.1 1027.2 0.0
29/05:00pm 14.3 10.9 10.5 78 2.0 SSE 19 24 10 13 1026.8 1026.9 0.0
29/04:30pm 14.7 11.3 10.5 76 2.2 SE 19 24 10 13 1026.5 1026.6 0.0
29/04:00pm 14.6 10.9 10.0 74 2.4 SE 20 26 11 14 1026.3 1026.4 0.0
29/03:30pm 15.5 12.1 10.5 72 2.6 SSE 19 24 10 13 1026.2 1026.3 0.0
29/03:00pm 15.1 11.3 9.7 70 2.8 SE 20 30 11 16 1026.1 1026.2 0.0
29/02:30pm 15.5 10.9 9.6 68 3.1 SE 24 32 13 17 1026.0 1026.1 0.0
29/02:00pm 15.1 10.2 10.1 72 2.6 SE 26 33 14 18 1026.2 1026.3 0.0
29/01:30pm 16.1 11.9 11.1 72 2.7 SSE 24 32 13 17 1026.1 1026.2 0.0
29/01:00pm 15.4 11.7 10.2 71 2.7 SSE 20 30 11 16 1026.0 1026.1 0.0
29/12:30pm 15.8 12.8 10.6 71 2.8 SE 17 22 9 12 1025.8 1025.9 0.0
29/12:00pm 15.3 11.7 10.5 73 2.5 SSE 20 28 11 15 1025.9 1026.0 0.0
29/11:30am 15.4 12.3 10.2 71 2.7 SE 17 24 9 13 1025.6 1025.7 0.0
29/11:00am 15.0 11.5 10.2 73 2.5 SE 19 24 10 13 1025.5 1025.6 0.0
29/10:30am 14.9 10.9 10.3 74 2.4 SE 22 30 12 16 1025.5 1025.6 0.0
29/10:00am 14.7 11.3 10.5 76 2.2 SE 19 24 10 13 1025.5 1025.6 0.0
29/09:30am 14.2 11.8 11.4 83 1.5 SSE 15 22 8 12 1025.3 1025.4 0.0
29/09:00am 12.6 11.5 12.0 96 0.3 SW 9 11 5 6 1025.3 1025.4 6.0
29/08:47am 11.6 10.2 10.8 95 0.4 NE 9 15 5 8 1025.3 1025.4 6.0
29/08:39am 12.2 9.4 11.4 95 0.4 SSW 17 20 9 11 1025.2 1025.3 6.0
29/08:30am 12.3 9.9 11.5 95 0.4 SSW 15 24 8 13 1024.9 1025.0 6.0
29/08:15am 11.6 10.8 11.1 97 0.3 E 6 11 3 6 1025.0 1025.1 5.8
29/08:00am 11.2 10.7 10.7 97 0.3 E 4 7 2 4 1024.9 1025.0 5.8
29/07:41am 10.9 9.4 10.4 97 0.3 S 9 15 5 8 1024.7 1024.8 3.8
29/07:30am 10.9 8.6 10.4 97 0.3 SW 13 19 7 10 1024.4 1024.5 3.0
29/07:00am 10.8 7.7 10.3 97 0.3 WSW 17 22 9 12 1024.1 1024.2 2.6
29/06:30am 10.5 7.7 10.0 97 0.3 SW 15 19 8 10 1023.8 1023.9 2.4
29/06:00am 10.3 7.8 9.7 96 0.3 WSW 13 20 7 11 1023.4 1023.5 2.4
29/05:52am 10.3 7.8 9.7 96 0.3 WSW 13 19 7 10 1023.4 1023.5 2.4
29/05:38am 10.3 7.4 9.7 96 0.3 WSW 15 19 8 10 1023.2 1023.3 2.2
29/05:30am 10.4 7.9 9.8 96 0.3 WSW 13 19 7 10 1023.1 1023.2 2.2
29/05:00am 10.3 7.4 9.7 96 0.3 WSW 15 19 8 10 1022.6 1022.7 2.2
29/04:30am 10.4 7.6 9.9 97 0.3 WSW 15 20 8 11 1022.5 1022.6 2.2
29/04:00am 10.4 7.6 9.9 97 0.3 WSW 15 17 8 9 1022.2 1022.3 2.2
29/03:30am 10.3 7.4 9.8 97 0.3 WSW 15 20 8 11 1021.9 1022.0 2.2
29/03:00am 10.4 7.2 9.9 97 0.3 WSW 17 20 9 11 1021.9 1022.0 2.2
29/02:30am 10.6 8.6 10.1 97 0.3 WSW 11 15 6 8 1022.0 1022.1 2.2
29/02:03am 10.7 9.5 10.2 97 0.3 WSW 7 11 4 6 1022.0 1022.1 2.0
29/02:00am 10.7 9.1 10.2 97 0.3 WSW 9 11 5 6 1022.1 1022.2 2.0
29/01:30am 10.9 9.4 10.4 97 0.3 WSW 9 13 5 7 1022.0 1022.1 1.4
29/01:00am 11.1 9.6 10.6 97 0.3 W 9 15 5 8 1022.1 1022.2 1.2
29/12:30am 11.5 9.7 11.0 97 0.3 WSW 11 15 6 8 1021.9 1022.0 0.8
29/12:28am 11.5 9.7 11.0 97 0.3 WSW 11 15 6 8 1021.9 1022.0 0.8
29/12:00am 11.4 9.2 10.8 96 0.3 SW 13 17 7 9 1021.7 1021.8 0.6
 
Date/Time
EST
Temp
°C
App
Temp
°C
Dew
Point
°C
Rel
Hum
%
Delta-T
°C
Wind Press
QNH
hPa
Press
MSL
hPa
Rain since
9am
mm
Dir  Spd
km/h
Gust
km/h
Spd
kts
Gust
kts
28/11:56pm 11.4 9.2 10.8 96 0.3 SW 13 19 7 10 1021.7 1021.8 0.6
28/11:46pm 11.5 8.6 10.9 96 0.3 SW 17 19 9 10 1021.6 1021.7 0.6
28/11:45pm 11.5 8.6 10.9 96 0.3 SW 17 19 9 10 1021.6 1021.7 0.6
28/11:30pm 11.6 9.0 10.8 95 0.4 SW 15 17 8 9 1021.6 1021.7 0.6
28/11:08pm 11.7 9.2 11.1 96 0.3 SW 15 20 8 11 1021.5 1021.5 0.6
28/11:00pm 11.6 9.1 11.0 96 0.3 SW 15 20 8 11 1021.4 1021.4 0.6
28/10:30pm 11.6 9.1 11.0 96 0.3 SW 15 17 8 9 1021.3 1021.3 0.6
28/10:00pm 11.6 9.4 10.8 95 0.4 SW 13 15 7 8 1021.3 1021.3 0.6
28/09:30pm 11.5 8.9 10.7 95 0.4 SW 15 19 8 10 1021.2 1021.2 0.6
28/09:00pm 11.5 9.3 10.7 95 0.4 SW 13 15 7 8 1021.2 1021.2 0.6
28/08:36pm 11.5 9.6 10.6 94 0.5 SW 11 15 6 8 1021.2 1021.2 0.6
28/08:30pm 11.4 9.5 10.5 94 0.5 SW 11 13 6 7 1021.1 1021.1 0.6
28/08:15pm 11.8 9.6 10.7 93 0.6 SW 13 15 7 8 1021.0 1021.0 0.6
28/08:00pm 11.9 9.6 10.6 92 0.7 SW 13 17 7 9 1021.0 1021.0 0.6
28/07:30pm 12.2 10.0 10.9 92 0.7 SSW 13 17 7 9 1020.5 1020.5 0.6
28/07:00pm 12.3 9.8 10.9 91 0.7 SSW 15 19 8 10 1020.1 1020.1 0.6
28/06:30pm 12.5 10.0 10.9 90 0.8 SSW 15 19 8 10 1019.6 1019.6 0.6
28/06:00pm 12.8 9.5 10.9 88 1.0 SSW 19 24 10 13 1019.4 1019.4 0.6
28/05:30pm 13.1 9.6 10.8 86 1.2 SSW 20 24 11 13 1019.1 1019.1 0.6
28/05:00pm 13.6 10.2 11.1 85 1.3 SSW 20 26 11 14 1018.8 1018.8 0.6
28/04:30pm 14.1 10.4 10.1 77 2.1 SSW 20 26 11 14 1018.4 1018.4 0.6
28/04:00pm 14.4 10.5 10.8 79 1.9 SSW 22 28 12 15 1018.0 1018.0 0.6
28/03:30pm 14.6 10.9 10.2 75 2.3 S 20 32 11 17 1017.9 1017.9 0.6
28/03:00pm 14.6 10.1 10.2 75 2.3 S 24 32 13 17 1017.8 1017.8 0.6
28/02:30pm 14.4 10.1 10.6 78 2.0 S 24 32 13 17 1017.7 1017.7 0.6
28/02:00pm 14.4 9.4 11.0 80 1.8 S 28 39 15 21 1017.6 1017.6 0.6
28/01:30pm 14.6 10.0 11.2 80 1.8 S 26 33 14 18 1017.5 1017.5 0.6
28/01:00pm 14.7 9.9 11.7 82 1.6 S 28 33 15 18 1017.5 1017.5 0.6
28/12:42pm 14.6 10.2 11.7 83 1.6 S 26 33 14 18 1017.5 1017.5 0.6
28/12:30pm 14.2 9.3 11.4 83 1.5 S 28 35 15 19 1017.4 1017.4 0.6
28/12:00pm 14.1 9.8 12.0 87 1.1 S 26 32 14 17 1017.3 1017.3 0.6

Other formats

Comma delimited format used in spreadsheet applications
http://www.bom.gov.au/fwo/IDV60801/IDV60801.94912.axf

JavaScript Object Notation format (JSON) in row-major order
http://www.bom.gov.au/fwo/IDV60801/IDV60801.94912.json

Data quality

Most of these data are generated automatically and are frequently updated. Quality checks on data are not normally performed. It is possible for incorrect values to appear. Refer to information at About Latest Weather Observations and please check the disclaimer before using these data.